Main page
METAR-TAF:

METAR-TAF

Airports :

Chania International Airport

Chania, Crete, Greece

latitude: 35-29N, longitude: 024-07E, elevation: 146 m

Current weather observation

The report was made 31 minutes ago, at 21:20 UTC
Wind 4 kt from the West
Temperature 21°C
Humidity 88%
Pressure 1009 hPa
Visibility 10 km or more
Few clouds at a height of 1800 ft

METAR: LGSA 172120Z 26004KT 9999 FEW018 21/19 Q1009

Time: 00:51 (21:51 UTC)

Forecast

The report was made 4 hours and 51 minutes ago, at 17:00 UTC
Forecast valid from 17 at 18 UTC to 18 at 18 UTC
Wind 15 kt from the North/Northwest
Visibility 10 km or more
Scattered clouds at a height of 2000 ft
Broken clouds at a height of 8000 ft
Probability 40% :
Temporary
from 17 at 18 UTC to 17 at 21 UTC
Visibility: 5000 m
Few clouds at a height of 800 ft
Broken clouds at a height of 2000 ft
Broken clouds at a height of 8000 ft
rain

TAF: LGSA 171700Z 1718/1818 34015KT 9999 SCT020 BKN080 PROB40 TEMPO 1718/1721 5000 RA FEW008 BKN020 BKN080

Weather observations and forecasts of more than 4000 airports (METAR and TAF reports).

The available stations are represented by yellow and red dots on the map.

Hover mouse over dot to see the name of the station.

Then click to see weather observations and forecasts.

To change the map : click on the green buttons with a black cross to zoom in, on the green button with a dash to zoom out, or on the green arrows for adjacent maps.


METAR-TAF: